...

 METAR AND TAF INFORMATION
METAR FOR UWKS
ADDS - METARS form results

(2316 UTC 09 May 2021)
Data provider http://aviationweather.gov/metar/data/
 
METAR text: UWKS 092300Z 17002MPS CAVOK 13/09 Q1012 R06/290155 NOSIG RMK QFE744
Conditions at: UWKS (CHEBOKSARY , RU) observed 2300 UTC 09 May 2021
Temperature: 13.0°C (55°F)
Dewpoint: 9.0°C (48°F) [RH = 77%]
Pressure (altimeter): 29.88 inches Hg (1012.0 mb)
Winds: from the S (170 degrees) at 5 MPH (4 knots; 2.1 m/s)
Visibility: 6 or more miles (10+ km)
Ceiling: ceiling and visibility are OK
Clouds: unknown
Weather: no significant weather observed at this time

METAR text: UWKS 092230Z 12003MPS CAVOK 13/09 Q1012 R06/290155 NOSIG RMK QFE744
Conditions at: UWKS (CHEBOKSARY , RU) observed 2230 UTC 09 May 2021
Temperature: 13.0°C (55°F)
Dewpoint: 9.0°C (48°F) [RH = 77%]
Pressure (altimeter): 29.88 inches Hg (1012.0 mb)
Winds: from the ESE (120 degrees) at 7 MPH (6 knots; 3.1 m/s)
Visibility: 6 or more miles (10+ km)
Ceiling: ceiling and visibility are OK
Clouds: unknown
Weather: no significant weather observed at this time

Forecast for: UWKS (CHEBOKSARY , RU)
Text: TAF UWKS 092257Z 1000/1009 13003MPS 8000 BKN040CB TX20/1009Z TN12/1002Z
Forecast period: 0000 to 0900 UTC 10 May 2021
Forecast type: FROM: standard forecast or significant change
Winds: from the SE (130 degrees) at 7 MPH (6 knots; 3.1 m/s)
Visibility: 5 miles (8 km)
Ceiling: 4000 feet AGL
Clouds: broken clouds at 4000 feet AGL
Weather: no significant weather forecast for this period

 AIRPORT MAP

 RUNWAY INFORMATION
Runway 06 Runway length 8241 ft Runway width 161 ft
Runway elevation 560 ft Runway displaced threshold 0 ft Runway heading 72
Runway 24 Runway length 8241 ft Runway width 161 ft
Runway elevation 522 ft Runway displaced threshold 0 ft Runway heading 252
Runway 06R Runway length 4950 ft Runway width 270 ft
Runway elevation 557 ft Runway displaced threshold 0 ft Runway heading 73
Runway 24L Runway length 4950 ft Runway width 270 ft
Runway elevation 521 ft Runway displaced threshold 0 ft Runway heading 253

 AIRPORT FREQUENCIES
Type TWR Name TWR Frequency 119.3 MHZ

 AIRPORT NEAR NAVIGATION AIDS
Type NDB Name Cheboksary Frequency 510 KHZ
Type NDB Name Cheboksary Frequency 510 KHZ